createdAt,value
2023-05-16T00:00:34.985Z,88.47
2023-05-16T00:03:38.853Z,89.12
2023-05-16T00:06:41.714Z,90.43
2023-05-16T00:09:44.324Z,91.09
2023-05-16T00:12:51.451Z,89.15
2023-05-16T00:15:56.145Z,88.06
2023-05-16T00:18:59.807Z,89.51
2023-05-16T00:22:03.237Z,89.01
2023-05-16T00:25:06.660Z,88.08
2023-05-16T00:28:09.277Z,88.63
2023-05-16T00:31:13.212Z,87.36
2023-05-16T00:34:15.881Z,89.39
2023-05-16T00:37:18.519Z,90.61
2023-05-16T00:40:21.408Z,91.09
2023-05-16T00:43:24.052Z,91.78
2023-05-16T00:46:28.072Z,91.72
2023-05-16T00:49:31.106Z,91.08
2023-05-16T00:52:34.022Z,89.38
2023-05-16T00:55:36.744Z,88.56
2023-05-16T00:58:39.377Z,88.68
2023-05-16T01:01:44.938Z,88.95
2023-05-16T01:04:48.249Z,89.77
2023-05-16T01:07:50.913Z,88.23
2023-05-16T01:11:01.504Z,90.16
2023-05-16T01:14:22.075Z,89.62
2023-05-16T01:17:32.252Z,87.49
2023-05-16T01:20:42.505Z,87.07
2023-05-16T01:23:52.799Z,88.71
2023-05-16T01:26:57.559Z,89.89
2023-05-16T01:30:00.127Z,89.98
2023-05-16T01:33:02.871Z,88.95
2023-05-16T01:36:12.423Z,89.06
2023-05-16T01:39:22.748Z,88.42
2023-05-16T01:42:33.868Z,88.73
2023-05-16T01:45:41.316Z,88.53
2023-05-16T01:48:53.900Z,89.21
2023-05-16T01:52:01.884Z,87.95
2023-05-16T01:55:11.667Z,87.43
2023-05-16T01:58:17.002Z,89.00
2023-05-16T02:01:19.710Z,88.90
2023-05-16T02:04:24.027Z,87.85
2023-05-16T02:07:26.940Z,88.24
2023-05-16T02:10:29.655Z,88.23
2023-05-16T02:13:33.577Z,89.42
2023-05-16T02:16:36.360Z,91.96
2023-05-16T02:19:39.009Z,92.51
2023-05-16T02:22:42.575Z,91.66
2023-05-16T02:25:45.203Z,91.95
2023-05-16T02:28:49.866Z,91.95
2023-05-16T02:31:52.459Z,90.64
2023-05-16T02:34:55.053Z,93.41
2023-05-16T02:37:57.981Z,91.67
2023-05-16T02:41:00.551Z,91.17
2023-05-16T02:44:04.558Z,91.07
2023-05-16T02:47:07.503Z,89.81
2023-05-16T02:50:10.656Z,89.94
2023-05-16T02:53:13.704Z,89.21
2023-05-16T02:56:16.324Z,88.44
2023-05-16T02:59:20.385Z,89.60
2023-05-16T03:02:23.094Z,88.90
2023-05-16T03:05:27.199Z,87.26
2023-05-16T03:08:30.178Z,87.67
2023-05-16T03:11:32.802Z,87.08
2023-05-16T03:14:36.747Z,87.77
2023-05-16T03:17:39.440Z,88.08
2023-05-16T03:20:42.084Z,87.22
2023-05-16T03:23:44.858Z,87.51
2023-05-16T03:26:47.444Z,88.12
2023-05-16T03:29:51.445Z,87.86
2023-05-16T03:32:54.133Z,87.30
2023-05-16T03:35:56.745Z,88.96
2023-05-16T03:38:59.390Z,87.63
2023-05-16T03:42:02.096Z,87.58
2023-05-16T03:45:07.544Z,87.46
2023-05-16T03:48:10.352Z,86.77
2023-05-16T03:51:12.986Z,86.76
2023-05-16T03:54:15.584Z,86.62
2023-05-16T03:57:18.330Z,85.75
2023-05-16T04:00:22.265Z,85.06
2023-05-16T04:03:28.510Z,85.07
2023-05-16T04:06:31.949Z,85.16
2023-05-16T04:09:34.516Z,84.23
2023-05-16T04:12:37.118Z,83.77
2023-05-16T04:15:41.078Z,83.63
2023-05-16T04:18:43.728Z,81.17
2023-05-16T04:21:46.423Z,81.69
2023-05-16T04:24:49.071Z,81.18
2023-05-16T04:27:52.523Z,81.94
2023-05-16T04:30:56.549Z,81.74
2023-05-16T04:33:59.215Z,82.14
2023-05-16T04:37:01.815Z,82.21
2023-05-16T04:40:06.579Z,81.70
2023-05-16T04:43:09.231Z,83.34
2023-05-16T04:46:13.513Z,83.49
2023-05-16T04:49:16.665Z,83.07
2023-05-16T04:52:19.907Z,81.05
2023-05-16T04:55:22.516Z,80.23
2023-05-16T04:58:25.169Z,80.23
2023-05-16T05:01:29.177Z,79.24
2023-05-16T05:04:31.883Z,78.23
2023-05-16T05:07:34.713Z,78.85
2023-05-16T05:10:37.508Z,76.48
2023-05-16T05:13:40.080Z,76.26
2023-05-16T05:16:44.023Z,75.91
2023-05-16T05:19:46.737Z,75.87
2023-05-16T05:22:49.438Z,75.84
2023-05-16T05:25:52.200Z,75.26
2023-05-16T05:29:04.612Z,74.22
2023-05-16T05:32:09.921Z,72.69
2023-05-16T05:35:12.598Z,71.74
2023-05-16T05:38:15.175Z,70.67
2023-05-16T05:41:17.774Z,70.90
2023-05-16T05:44:20.363Z,69.03
2023-05-16T05:47:24.463Z,71.90
2023-05-16T05:50:27.107Z,69.91
2023-05-16T05:53:29.758Z,68.66
2023-05-16T05:56:32.521Z,69.38
2023-05-16T05:59:35.144Z,69.44
2023-05-16T06:02:39.284Z,67.73
2023-05-16T06:05:42.368Z,69.58
2023-05-16T06:08:44.979Z,68.90
2023-05-16T06:11:47.739Z,67.70
2023-05-16T06:14:50.324Z,69.07
2023-05-16T06:17:54.307Z,70.00
2023-05-16T06:20:56.917Z,68.02
2023-05-16T06:23:59.580Z,70.11
2023-05-16T06:27:02.177Z,69.27
2023-05-16T06:30:05.587Z,68.83
2023-05-16T06:33:09.530Z,68.73
2023-05-16T06:36:12.159Z,67.25
2023-05-16T06:39:14.741Z,64.76
2023-05-16T06:42:18.016Z,63.58
2023-05-16T06:45:20.738Z,64.02
2023-05-16T06:48:24.987Z,62.83
2023-05-16T06:51:27.629Z,64.46
2023-05-16T06:54:30.366Z,64.52
2023-05-16T06:57:33.197Z,60.56
2023-05-16T07:00:35.940Z,62.50
2023-05-16T07:03:40.236Z,64.30
2023-05-16T07:06:42.964Z,63.27
2023-05-16T07:09:45.650Z,63.43
2023-05-16T07:12:48.431Z,65.27
2023-05-16T07:15:51.104Z,64.93
2023-05-16T07:18:55.089Z,66.01
2023-05-16T07:21:57.753Z,66.84
2023-05-16T07:25:01.157Z,67.19
2023-05-16T07:28:04.183Z,62.98
2023-05-16T07:31:08.284Z,61.80
2023-05-16T07:34:12.436Z,60.24
2023-05-16T07:37:16.169Z,62.19
2023-05-16T07:40:20.906Z,59.26
2023-05-16T07:43:23.515Z,58.13
2023-05-16T07:46:26.409Z,56.85
2023-05-16T07:49:30.409Z,55.94
2023-05-16T07:52:33.050Z,53.69
2023-05-16T07:55:35.774Z,54.06
2023-05-16T07:58:39.720Z,53.78
2023-05-16T08:01:42.380Z,55.30
2023-05-16T08:04:46.939Z,55.18
2023-05-16T08:07:49.717Z,54.80
2023-05-16T08:10:52.399Z,55.00
2023-05-16T08:13:55.054Z,53.53
2023-05-16T08:16:57.964Z,53.37
2023-05-16T08:23:04.768Z,52.39
2023-05-16T08:26:07.422Z,52.85
2023-05-16T08:29:10.217Z,52.23
2023-05-16T08:32:13.091Z,49.09
2023-05-16T08:35:17.183Z,48.19
2023-05-16T08:38:19.864Z,48.19
2023-05-16T08:41:22.876Z,47.99
2023-05-16T08:44:25.884Z,47.94
2023-05-16T08:47:34.103Z,48.29
2023-05-16T08:50:38.377Z,48.76
2023-05-16T08:53:45.959Z,50.92
2023-05-16T08:56:50.424Z,53.27
2023-05-16T08:59:54.230Z,53.10
2023-05-16T09:02:57.418Z,53.34
2023-05-16T09:06:01.533Z,51.18
2023-05-16T09:09:07.790Z,51.60
2023-05-16T09:12:10.638Z,50.76
2023-05-16T09:15:13.374Z,49.40
2023-05-16T09:18:16.067Z,50.05
2023-05-16T09:21:20.936Z,47.72
2023-05-16T09:24:27.008Z,44.23
2023-05-16T09:27:32.502Z,44.32
2023-05-16T09:30:37.204Z,44.79
2023-05-16T09:33:43.308Z,43.55
2023-05-16T09:36:47.449Z,42.45
2023-05-16T09:39:51.929Z,42.88
2023-05-16T09:43:04.301Z,43.03
2023-05-16T09:46:07.162Z,42.77
2023-05-16T09:49:13.397Z,41.45
2023-05-16T09:52:17.558Z,41.42
2023-05-16T09:55:20.494Z,41.66
2023-05-16T09:58:29.926Z,41.32
2023-05-16T10:01:32.644Z,43.30
2023-05-16T10:04:36.488Z,44.81
2023-05-16T10:07:41.278Z,43.62
2023-05-16T10:10:44.009Z,42.31
2023-05-16T10:13:52.940Z,40.15
2023-05-16T10:16:57.732Z,39.83
2023-05-16T10:20:04.510Z,40.27
2023-05-16T10:23:13.489Z,38.86
2023-05-16T10:26:18.333Z,40.80
2023-05-16T10:29:21.825Z,40.26
2023-05-16T10:32:25.550Z,41.04
2023-05-16T10:35:28.895Z,41.68
2023-05-16T10:38:34.780Z,42.83
2023-05-16T10:41:37.770Z,41.93
2023-05-16T10:44:42.766Z,39.65
2023-05-16T10:47:55.469Z,38.44
2023-05-16T10:50:58.184Z,38.43
2023-05-16T10:54:07.218Z,38.29
2023-05-16T10:57:11.980Z,38.55
2023-05-16T11:00:23.102Z,39.42
2023-05-16T11:03:28.291Z,40.15
2023-05-16T11:06:32.611Z,39.14
2023-05-16T11:09:36.635Z,38.34
2023-05-16T11:12:44.032Z,39.32
2023-05-16T11:15:47.113Z,36.88
2023-05-16T11:18:51.938Z,38.60
2023-05-16T11:22:15.517Z,35.96
2023-05-16T11:25:39.242Z,38.21
2023-05-16T11:28:42.024Z,38.85
2023-05-16T11:31:44.791Z,38.93
2023-05-16T11:34:48.273Z,40.76
2023-05-16T11:37:51.017Z,41.38
2023-05-16T11:40:55.187Z,42.71
2023-05-16T11:43:57.845Z,41.93
2023-05-16T11:47:02.501Z,39.24
2023-05-16T11:50:06.391Z,36.02
2023-05-16T11:53:09.426Z,38.13
2023-05-16T11:56:13.552Z,39.09
2023-05-16T11:59:16.500Z,38.73
2023-05-16T12:02:19.169Z,38.28
2023-05-16T12:05:25.369Z,38.34
2023-05-16T12:08:28.353Z,38.08
2023-05-16T12:11:35.008Z,37.06
2023-05-16T12:14:38.061Z,36.69
2023-05-16T12:17:42.174Z,37.51
2023-05-16T12:20:45.375Z,39.39
2023-05-16T12:23:48.086Z,40.33
2023-05-16T12:26:54.541Z,41.52
2023-05-16T12:29:59.424Z,42.17
2023-05-16T12:33:07.696Z,42.94
2023-05-16T12:36:15.484Z,42.27
2023-05-16T12:39:18.190Z,43.96
2023-05-16T12:42:22.169Z,43.10
2023-05-16T12:45:25.113Z,42.99
2023-05-16T12:48:34.307Z,40.61
2023-05-16T12:51:37.535Z,40.45
2023-05-16T12:54:40.156Z,37.87
2023-05-16T12:57:45.088Z,38.39
2023-05-16T13:00:48.567Z,37.13
2023-05-16T13:03:51.252Z,36.63
2023-05-16T13:09:59.851Z,39.99
2023-05-16T13:13:04.453Z,40.13
2023-05-16T13:16:07.793Z,41.91
2023-05-16T13:19:10.588Z,42.71
2023-05-16T13:22:13.461Z,43.00
2023-05-16T13:25:16.130Z,41.43
2023-05-16T13:28:20.106Z,43.20
2023-05-16T13:31:23.198Z,42.29
2023-05-16T13:34:25.959Z,43.15
2023-05-16T13:37:28.626Z,41.92
2023-05-16T13:40:31.257Z,42.47
2023-05-16T13:43:35.296Z,44.89
2023-05-16T13:46:38.450Z,44.37
2023-05-16T13:49:41.186Z,45.32
2023-05-16T13:52:44.331Z,48.15
2023-05-16T13:55:47.031Z,49.37
2023-05-16T13:59:02.035Z,49.76
2023-05-16T14:02:06.731Z,48.50
2023-05-16T14:05:10.481Z,43.30
2023-05-16T14:08:14.081Z,43.43
2023-05-16T14:11:19.526Z,43.56
2023-05-16T14:14:23.539Z,42.76
2023-05-16T14:17:26.886Z,45.03
2023-05-16T14:20:29.566Z,44.04
2023-05-16T14:23:32.209Z,44.23
2023-05-16T14:26:34.859Z,45.98
2023-05-16T14:29:38.880Z,45.63
2023-05-16T14:32:41.969Z,46.84
2023-05-16T14:35:44.644Z,45.00
2023-05-16T14:38:49.020Z,44.07
2023-05-16T14:41:51.655Z,45.01
2023-05-16T14:44:55.751Z,45.86
2023-05-16T14:47:58.434Z,47.16
2023-05-16T14:51:01.102Z,46.45
2023-05-16T14:54:04.065Z,47.28
2023-05-16T14:57:07.331Z,46.95
2023-05-16T15:00:13.691Z,47.89
2023-05-16T15:03:17.593Z,48.27
2023-05-16T15:06:20.559Z,48.55
2023-05-16T15:09:23.208Z,48.77
2023-05-16T15:12:25.825Z,47.56
2023-05-16T15:15:29.923Z,48.08
2023-05-16T15:18:32.589Z,48.79
2023-05-16T15:21:35.425Z,47.85
2023-05-16T15:24:38.171Z,46.62
2023-05-16T15:27:40.873Z,46.76
2023-05-16T15:30:44.855Z,46.41
2023-05-16T15:33:48.566Z,46.00
2023-05-16T15:36:51.784Z,46.58
2023-05-16T15:39:54.398Z,48.02
2023-05-16T15:42:57.052Z,49.36
2023-05-16T15:46:01.390Z,48.99
2023-05-16T15:49:04.046Z,50.58
2023-05-16T15:52:06.832Z,50.76
2023-05-16T15:55:11.844Z,51.03
2023-05-16T15:58:14.512Z,51.36
2023-05-16T16:01:18.536Z,51.95
2023-05-16T16:04:23.410Z,51.62
2023-05-16T16:07:26.299Z,52.59
2023-05-16T16:10:28.980Z,55.41
2023-05-16T16:13:31.979Z,57.76
2023-05-16T16:16:37.192Z,58.83
2023-05-16T16:19:39.897Z,60.24
2023-05-16T16:22:42.532Z,60.02
2023-05-16T16:25:45.201Z,58.31
2023-05-16T16:28:50.102Z,57.22
2023-05-16T16:31:54.211Z,56.10
2023-05-16T16:34:57.069Z,55.52
2023-05-16T16:38:06.611Z,54.68
2023-05-16T16:41:10.181Z,55.08
2023-05-16T16:44:13.633Z,56.09
2023-05-16T16:47:17.626Z,55.33
2023-05-16T16:50:20.309Z,55.36
2023-05-16T16:53:22.972Z,54.89
2023-05-16T16:56:26.398Z,54.27
2023-05-16T16:59:29.033Z,55.78
2023-05-16T17:02:33.059Z,55.07
2023-05-16T17:05:35.768Z,54.64
2023-05-16T17:08:38.404Z,56.03
2023-05-16T17:11:42.174Z,58.17
2023-05-16T17:14:44.843Z,59.98
2023-05-16T17:17:49.177Z,59.75
2023-05-16T17:20:53.114Z,60.19
2023-05-16T17:23:57.936Z,59.69
2023-05-16T17:27:01.640Z,67.83
2023-05-16T17:30:05.915Z,71.40
2023-05-16T17:33:09.960Z,78.06
2023-05-16T17:36:12.608Z,79.04
2023-05-16T17:39:15.300Z,80.57
2023-05-16T17:42:17.929Z,83.29
2023-05-16T17:45:20.632Z,84.05
2023-05-16T17:48:24.662Z,85.05
2023-05-16T17:51:27.430Z,87.86
2023-05-16T17:54:32.074Z,88.62
2023-05-16T17:57:34.787Z,94.92
2023-05-16T18:00:38.369Z,93.33
2023-05-16T18:03:43.369Z,95.60
2023-05-16T18:06:46.351Z,97.22
2023-05-16T18:09:49.211Z,96.56
2023-05-16T18:12:51.914Z,99.06
2023-05-16T18:15:54.542Z,98.79
2023-05-16T18:18:58.868Z,98.94
2023-05-16T18:22:01.595Z,100.00
2023-05-16T18:25:05.323Z,100.00
2023-05-16T18:28:07.989Z,100.00
2023-05-16T18:31:10.768Z,100.00
2023-05-16T18:34:14.745Z,100.00
2023-05-16T18:37:17.728Z,100.00
2023-05-16T18:40:21.345Z,100.00
2023-05-16T18:43:23.995Z,100.00
2023-05-16T18:46:26.633Z,100.00
2023-05-16T18:49:33.390Z,100.00
2023-05-16T18:52:36.911Z,100.00
2023-05-16T18:55:39.544Z,100.00
2023-05-16T18:58:42.630Z,100.00
2023-05-16T19:01:45.641Z,99.85
2023-05-16T19:04:49.720Z,100.00
2023-05-16T19:07:52.444Z,99.27
2023-05-16T19:10:55.244Z,100.00
2023-05-16T19:13:57.864Z,100.00
2023-05-16T19:17:00.475Z,100.00
2023-05-16T19:20:05.063Z,100.00
2023-05-16T19:23:08.347Z,100.00
2023-05-16T19:26:10.962Z,100.00
2023-05-16T19:29:13.585Z,100.00
2023-05-16T19:32:16.236Z,100.00
2023-05-16T19:35:20.278Z,100.00
2023-05-16T19:38:24.433Z,100.00
2023-05-16T19:41:27.490Z,100.00
2023-05-16T19:44:30.117Z,100.00
2023-05-16T19:47:32.911Z,100.00
2023-05-16T19:50:37.308Z,100.00
2023-05-16T19:53:39.962Z,100.00
2023-05-16T19:56:42.602Z,100.00
2023-05-16T19:59:45.215Z,100.00
2023-05-16T20:02:47.964Z,100.00
2023-05-16T20:05:52.145Z,100.00
2023-05-16T20:08:54.757Z,100.00
2023-05-16T20:11:58.797Z,100.00
2023-05-16T20:15:01.973Z,100.00
2023-05-16T20:18:04.942Z,100.00
2023-05-16T20:21:08.981Z,100.00
2023-05-16T20:24:11.639Z,100.00
2023-05-16T20:27:14.327Z,100.00
2023-05-16T20:30:16.963Z,100.00
2023-05-16T20:33:19.642Z,100.00
2023-05-16T20:36:23.780Z,100.00
2023-05-16T20:39:27.114Z,100.00
2023-05-16T20:42:29.779Z,100.00
2023-05-16T20:45:32.381Z,100.00
2023-05-16T20:48:35.076Z,100.00
2023-05-16T20:51:39.064Z,100.00
2023-05-16T20:54:42.204Z,100.00
2023-05-16T20:57:44.868Z,100.00
2023-05-16T21:00:47.488Z,100.00
2023-05-16T21:03:50.157Z,100.00
2023-05-16T21:06:54.181Z,100.00
2023-05-16T21:09:56.794Z,100.00
2023-05-16T21:12:59.460Z,100.00
2023-05-16T21:16:02.154Z,100.00
2023-05-16T21:19:05.201Z,100.00
2023-05-16T21:22:09.378Z,100.00
2023-05-16T21:25:12.028Z,100.00
2023-05-16T21:28:14.665Z,100.00
2023-05-16T21:31:17.323Z,100.00
2023-05-16T21:34:19.953Z,100.00
2023-05-16T21:37:23.940Z,100.00
2023-05-16T21:40:28.618Z,100.00
2023-05-16T21:43:31.232Z,100.00
2023-05-16T21:46:33.888Z,100.00
2023-05-16T21:49:36.513Z,100.00
2023-05-16T21:52:41.181Z,100.00
2023-05-16T21:55:43.886Z,100.00
2023-05-16T21:58:46.507Z,100.00
2023-05-16T22:01:49.125Z,100.00
2023-05-16T22:04:53.220Z,100.00
2023-05-16T22:07:57.265Z,100.00
2023-05-16T22:10:59.926Z,100.00
2023-05-16T22:14:02.623Z,100.00
2023-05-16T22:17:06.242Z,100.00
2023-05-16T22:20:09.715Z,100.00
2023-05-16T22:23:13.712Z,100.00
2023-05-16T22:26:16.349Z,100.00
2023-05-16T22:29:19.017Z,100.00
2023-05-16T22:32:22.203Z,100.00
2023-05-16T22:35:25.168Z,100.00
2023-05-16T22:38:29.197Z,100.00
2023-05-16T22:41:32.083Z,100.00
2023-05-16T22:44:34.784Z,100.00
2023-05-16T22:47:37.439Z,100.00
2023-05-16T22:50:40.154Z,100.00
2023-05-16T22:53:44.203Z,100.00
2023-05-16T22:56:46.867Z,100.00
2023-05-16T22:59:49.509Z,100.00
2023-05-16T23:02:52.369Z,100.00
2023-05-16T23:05:55.189Z,100.00
2023-05-16T23:09:00.033Z,100.00
2023-05-16T23:12:02.775Z,100.00
2023-05-16T23:15:09.875Z,100.00
2023-05-16T23:18:12.781Z,100.00
2023-05-16T23:21:15.535Z,100.00
2023-05-16T23:24:19.643Z,100.00
2023-05-16T23:27:22.361Z,100.00
2023-05-16T23:30:25.270Z,100.00
2023-05-16T23:33:28.233Z,100.00
2023-05-16T23:36:31.085Z,100.00
2023-05-16T23:39:35.074Z,100.00
2023-05-16T23:42:37.748Z,100.00
2023-05-16T23:45:40.442Z,100.00
2023-05-16T23:48:43.125Z,100.00
2023-05-16T23:51:57.537Z,100.00
2023-05-16T23:55:02.706Z,100.00
2023-05-16T23:58:05.343Z,100.00
